Time;durP1;ratioP1;P1;durP2;ratioP2;P2;SDS_P1;SDS_P2;PMS_P1;PMS_P2;Temp;Humidity;BMP_temperature;BMP_pressure;BME280_temperature;BME280_humidity;BME280_pressure;Samples;Min_cycle;Max_cycle;Signal;HPM_P1;HPM_P2
2022/06/19 00:01:19;;;;;;;8.25;3.30;;;563.50;1996.80;;;;;;5116971;27;20502;-78
2022/06/19 00:03:51;;;;;;;10.32;3.47;;;563.40;2022.40;;;;;;5118405;27;20069;-78
2022/06/19 00:06:18;;;;;;;5.40;3.45;;;563.40;2048.00;;;;;;5135203;27;20063;-78
2022/06/19 00:08:45;;;;;;;7.28;3.17;;;563.50;2048.00;;;;;;5105132;27;20034;-78
2022/06/19 00:11:12;;;;;;;9.27;3.95;;;563.50;2048.00;;;;;;5136671;27;20020;-78
2022/06/19 00:13:38;;;;;;;16.50;4.10;;;563.60;2022.40;;;;;;5117222;27;20120;-77
2022/06/19 00:16:04;;;;;;;7.05;3.13;;;563.60;1996.80;;;;;;5136565;27;20015;-79
2022/06/19 00:18:30;;;;;;;8.82;3.80;;;563.70;1996.80;;;;;;5136032;27;20034;-79
2022/06/19 00:20:56;;;;;;;13.57;4.18;;;563.60;1996.80;;;;;;5118131;27;20023;-79
2022/06/19 00:23:22;;;;;;;9.73;3.97;;;563.60;1996.80;;;;;;5136162;27;20102;-79
2022/06/19 00:25:48;;;;;;;11.80;3.85;;;563.50;1996.80;;;;;;5117903;27;20077;-78
2022/06/19 00:28:14;;;;;;;10.52;3.58;;;563.50;1996.80;;;;;;5117679;27;20076;-78
2022/06/19 00:30:40;;;;;;;9.57;3.47;;;563.60;1996.80;;;;;;5117649;27;20027;-78
2022/06/19 00:33:06;;;;;;;10.45;4.30;;;563.60;1971.20;;;;;;5117764;27;20047;-79
2022/06/19 00:35:32;;;;;;;10.45;4.38;;;563.60;1971.20;;;;;;5136127;27;20029;-79
2022/06/19 00:37:58;;;;;;;7.93;3.80;;;563.60;1971.20;;;;;;5117272;27;20035;-78
2022/06/19 00:40:26;;;;;;;9.70;4.05;;;563.60;1996.80;;;;;;5135125;27;20086;-78
2022/06/19 00:42:52;;;;;;;9.43;3.63;;;563.60;2022.40;;;;;;5134753;28;20072;-78
2022/06/19 00:45:37;;;;;;;9.40;3.42;;;563.50;2022.40;;;;;;5105145;28;20020;-78
2022/06/19 00:48:13;;;;;;;12.77;3.42;;;563.50;1996.80;;;;;;5133513;27;20026;-78
2022/06/19 00:50:39;;;;;;;9.77;3.55;;;563.20;2073.60;;;;;;5132440;28;20023;-78
2022/06/19 00:53:11;;;;;;;7.20;3.10;;;563.20;2201.60;;;;;;5113959;28;20019;-78
2022/06/19 00:55:42;;;;;;;10.80;3.03;;;563.70;2432.00;;;;;;5114950;28;20384;-79
2022/06/19 00:58:46;;;;;;;11.43;3.53;;;538.40;2176.00;;;;;;5134410;28;20015;-79
2022/06/19 01:01:16;;;;;;;8.90;3.45;;;538.50;2124.80;;;;;;5030774;28;20049;-78
2022/06/19 01:03:51;;;;;;;7.03;3.97;;;538.50;2099.20;;;;;;5031366;28;20522;-78
2022/06/19 01:06:18;;;;;;;8.55;3.72;;;563.20;2099.20;;;;;;5031406;28;20036;-78
2022/06/19 01:08:45;;;;;;;10.75;3.67;;;538.50;2048.00;;;;;;5031067;28;20079;-78
2022/06/19 01:11:11;;;;;;;7.78;3.40;;;538.40;2073.60;;;;;;5014613;28;20395;-78
2022/06/19 01:13:38;;;;;;;7.97;3.78;;;538.30;2124.80;;;;;;5031028;28;20033;-78
2022/06/19 01:16:05;;;;;;;10.43;3.90;;;538.10;2150.40;;;;;;5014384;28;20021;-78
2022/06/19 01:18:34;;;;;;;8.48;4.00;;;538.10;2150.40;;;;;;5011361;28;20510;-79
2022/06/19 01:21:16;;;;;;;14.50;3.97;;;538.10;2124.80;;;;;;4994368;28;20041;-79
2022/06/19 01:24:10;;;;;;;10.82;4.75;;;538.20;2124.80;;;;;;5009700;28;20044;-78
2022/06/19 01:26:46;;;;;;;8.85;4.30;;;538.30;2099.20;;;;;;4992352;28;20032;-78
2022/06/19 01:29:13;;;;;;;14.05;4.13;;;538.30;2073.60;;;;;;4993979;28;20427;-79
2022/06/19 01:31:55;;;;;;;6.07;3.47;;;538.40;2073.60;;;;;;4994163;28;20068;-77
2022/06/19 01:34:35;;;;;;;10.90;4.53;;;538.40;2073.60;;;;;;5010664;28;20037;-77
2022/06/19 01:37:24;;;;;;;9.30;5.25;;;538.40;2073.60;;;;;;5052535;28;20497;-78
2022/06/19 01:40:05;;;;;;;9.77;4.20;;;538.50;2048.00;;;;;;5069445;28;1218038;-78
2022/06/19 01:42:31;;;;;;;8.00;4.35;;;538.40;2073.60;;;;;;5095749;28;20031;-79
2022/06/19 01:44:58;;;;;;;9.70;4.22;;;538.20;2099.20;;;;;;5095275;28;20027;-79
2022/06/19 01:47:25;;;;;;;7.90;3.83;;;537.90;2150.40;;;;;;5095487;28;20054;-78
2022/06/19 01:49:53;;;;;;;6.82;3.85;;;537.70;2176.00;;;;;;5095272;28;20438;-78
2022/06/19 01:52:21;;;;;;;8.38;3.80;;;537.60;2227.20;;;;;;5095602;28;20089;-78
2022/06/19 01:54:56;;;;;;;7.22;4.22;;;512.90;2227.20;;;;;;5113488;28;20586;-77
2022/06/19 01:57:23;;;;;;;11.68;4.60;;;537.70;2227.20;;;;;;5112151;28;20015;-78
2022/06/19 01:59:50;;;;;;;10.55;4.63;;;537.70;2201.60;;;;;;5112723;28;20055;-79
2022/06/19 02:02:16;;;;;;;10.25;4.32;;;537.60;2227.20;;;;;;5094898;28;20015;-79
2022/06/19 02:04:43;;;;;;;11.45;4.70;;;537.60;2227.20;;;;;;5095257;28;20432;-78
2022/06/19 02:07:19;;;;;;;10.75;4.82;;;537.70;2252.80;;;;;;5113355;28;20057;-79
2022/06/19 02:09:46;;;;;;;16.30;4.10;;;537.70;2304.00;;;;;;5112235;28;20065;-78
2022/06/19 02:12:13;;;;;;;11.93;4.82;;;537.80;2304.00;;;;;;5113064;28;20030;-78
2022/06/19 02:14:39;;;;;;;8.85;4.20;;;537.60;2355.20;;;;;;5113556;28;20030;-78
2022/06/19 02:17:15;;;;;;;9.65;5.38;;;512.90;2380.80;;;;;;5094860;28;20023;-78
2022/06/19 02:19:41;;;;;;;12.27;5.07;;;512.80;2380.80;;;;;;5092793;28;20028;-78
2022/06/19 02:22:13;;;;;;;8.50;5.03;;;512.80;2380.80;;;;;;5113402;28;20015;-78
2022/06/19 02:24:39;;;;;;;7.97;4.63;;;512.90;2355.20;;;;;;5110922;28;20114;-77
2022/06/19 02:27:05;;;;;;;10.95;5.40;;;512.80;2355.20;;;;;;5113214;28;20016;-78
2022/06/19 02:29:33;;;;;;;17.05;5.68;;;512.80;2355.20;;;;;;5094569;28;20027;-78
2022/06/19 02:31:59;;;;;;;9.27;5.20;;;512.90;2329.60;;;;;;5112674;28;20012;-78
2022/06/19 02:34:31;;;;;;;11.93;6.00;;;512.90;2304.00;;;;;;5112652;28;20110;-77
2022/06/19 02:37:03;;;;;;;9.90;5.47;;;512.80;2304.00;;;;;;5110239;28;20028;-77
2022/06/19 02:39:41;;;;;;;10.82;5.07;;;512.80;2329.60;;;;;;5112957;28;20027;-77
2022/06/19 02:42:34;;;;;;;17.85;5.88;;;512.50;2380.80;;;;;;5111581;28;20027;-77
2022/06/19 02:45:05;;;;;;;9.23;5.88;;;512.40;2380.80;;;;;;5110268;28;20437;-77
2022/06/19 02:47:35;;;;;;;11.98;5.05;;;512.40;2380.80;;;;;;5112532;28;20183;-77
2022/06/19 02:50:01;;;;;;;10.27;5.00;;;512.40;2380.80;;;;;;5112550;28;20026;-77
2022/06/19 02:52:27;;;;;;;12.10;5.75;;;512.30;2380.80;;;;;;5112762;28;20012;-77
2022/06/19 02:54:53;;;;;;;10.70;5.10;;;512.40;2380.80;;;;;;5112372;28;20511;-77
2022/06/19 02:57:19;;;;;;;9.02;4.90;;;512.40;2380.80;;;;;;5112238;28;20047;-77
2022/06/19 02:59:45;;;;;;;11.27;5.18;;;512.40;2380.80;;;;;;5112524;28;20037;-78
2022/06/19 03:02:14;;;;;;;7.47;5.22;;;512.30;2380.80;;;;;;5112096;28;20054;-77
2022/06/19 03:04:59;;;;;;;19.70;6.00;;;512.30;2380.80;;;;;;5110509;28;20027;-77
2022/06/19 03:07:26;;;;;;;10.35;5.28;;;512.30;2380.80;;;;;;5110718;28;20087;-77
2022/06/19 03:09:53;;;;;;;11.63;5.93;;;512.30;2380.80;;;;;;5112170;28;20024;-77
2022/06/19 03:12:19;;;;;;;14.77;5.45;;;512.10;2380.80;;;;;;5112418;28;20012;-77
2022/06/19 03:14:45;;;;;;;9.45;4.85;;;512.00;2380.80;;;;;;5093972;28;20053;-77
2022/06/19 03:17:21;;;;;;;10.43;5.20;;;512.20;2380.80;;;;;;5112500;28;20076;-78
2022/06/19 03:19:47;;;;;;;13.23;5.90;;;512.20;2380.80;;;;;;5110731;28;20427;-77
2022/06/19 03:22:13;;;;;;;12.32;5.78;;;512.10;2380.80;;;;;;5093636;28;20032;-77
2022/06/19 03:24:40;;;;;;;8.55;4.95;;;512.10;2380.80;;;;;;5112066;28;20069;-77
2022/06/19 03:27:06;;;;;;;9.02;4.95;;;512.10;2380.80;;;;;;5112269;28;20073;-77
2022/06/19 03:29:32;;;;;;;12.48;5.90;;;512.00;2380.80;;;;;;5112321;28;20027;-77
2022/06/19 03:31:59;;;;;;;12.23;5.72;;;512.00;2380.80;;;;;;5109067;28;20027;-77
2022/06/19 03:34:25;;;;;;;7.25;5.10;;;512.00;2380.80;;;;;;5112183;28;20023;-77
2022/06/19 03:36:51;;;;;;;14.27;6.25;;;512.20;2380.80;;;;;;5111978;28;20475;-77
2022/06/19 03:39:18;;;;;;;13.05;5.72;;;512.30;2380.80;;;;;;5093927;28;20055;-77
2022/06/19 03:41:43;;;;;;;14.55;5.28;;;512.30;2380.80;;;;;;5076400;28;20483;-77
2022/06/19 03:44:09;;;;;;;9.85;4.70;;;512.30;2380.80;;;;;;5112389;28;20020;-77
2022/06/19 03:46:36;;;;;;;15.13;5.65;;;512.40;2380.80;;;;;;5111723;28;20027;-77
2022/06/19 03:49:02;;;;;;;12.82;5.30;;;512.50;2380.80;;;;;;5112017;28;20015;-77
2022/06/19 03:51:29;;;;;;;12.05;5.30;;;512.40;2380.80;;;;;;5093787;28;20032;-77
2022/06/19 03:53:56;;;;;;;21.40;5.35;;;512.50;2380.80;;;;;;5093498;28;20080;-77
2022/06/19 03:56:28;;;;;;;12.07;4.97;;;512.50;2380.80;;;;;;5112192;28;20020;-77
2022/06/19 03:58:54;;;;;;;14.73;5.18;;;512.50;2380.80;;;;;;5111726;28;20020;-77
2022/06/19 04:01:30;;;;;;;14.65;5.65;;;512.70;2380.80;;;;;;5108991;28;20110;-77
2022/06/19 04:03:57;;;;;;;12.38;5.32;;;512.70;2380.80;;;;;;5093313;28;20036;-77
2022/06/19 04:06:29;;;;;;;13.73;5.05;;;512.70;2380.80;;;;;;5111902;28;20020;-77
2022/06/19 04:08:56;;;;;;;7.20;4.78;;;512.70;2380.80;;;;;;5093266;28;20027;-77
2022/06/19 04:11:23;;;;;;;15.75;5.15;;;512.80;2380.80;;;;;;5111738;28;20020;-77
2022/06/19 04:13:52;;;;;;;9.45;4.50;;;512.90;2380.80;;;;;;5093608;28;20373;-77
2022/06/19 04:16:21;;;;;;;13.10;5.05;;;537.60;2406.40;;;;;;5093233;28;20111;-77
2022/06/19 04:18:49;;;;;;;12.52;5.35;;;537.60;2406.40;;;;;;5111911;28;20024;-77
2022/06/19 04:21:17;;;;;;;8.55;5.03;;;537.80;2380.80;;;;;;5111564;28;20035;-77
2022/06/19 04:23:44;;;;;;;13.73;4.97;;;537.90;2380.80;;;;;;5111921;28;20039;-77
2022/06/19 04:26:11;;;;;;;13.73;4.93;;;538.00;2329.60;;;;;;5115437;28;20476;-77
2022/06/19 04:28:38;;;;;;;10.73;4.80;;;537.80;2380.80;;;;;;5096883;28;20461;-77
2022/06/19 04:31:04;;;;;;;8.90;4.70;;;537.90;2329.60;;;;;;5115422;28;20027;-78
2022/06/19 04:33:32;;;;;;;12.82;5.30;;;538.10;2355.20;;;;;;5115119;28;20024;-76
2022/06/19 04:35:58;;;;;;;9.60;4.80;;;538.10;2278.40;;;;;;5115331;28;20024;-78
2022/06/19 04:38:24;;;;;;;10.73;4.53;;;538.20;2150.40;;;;;;5096713;28;20497;-78
2022/06/19 04:40:50;;;;;;;7.75;4.45;;;538.20;2022.40;;;;;;5093475;28;20138;-78
2022/06/19 04:43:16;;;;;;;11.77;4.53;;;538.20;1945.60;;;;;;5093294;28;20489;-77
2022/06/19 04:45:42;;;;;;;7.80;3.75;;;538.30;1868.80;;;;;;5095098;28;20047;-78
2022/06/19 04:48:08;;;;;;;9.00;4.22;;;538.30;1868.80;;;;;;5094495;28;20020;-78
2022/06/19 04:50:35;;;;;;;9.90;4.75;;;538.20;1868.80;;;;;;5093541;28;20024;-78
2022/06/19 04:53:01;;;;;;;8.30;4.63;;;538.20;1894.40;;;;;;5092978;28;20024;-77
2022/06/19 04:55:26;;;;;;;8.48;4.38;;;538.30;1920.00;;;;;;5094493;28;20500;-78
2022/06/19 04:57:52;;;;;;;10.13;4.30;;;538.40;1945.60;;;;;;5094914;28;20024;-78
2022/06/19 05:00:20;;;;;;;8.50;4.15;;;538.40;1945.60;;;;;;5094052;28;20473;-78
2022/06/19 05:02:52;;;;;;;12.18;4.93;;;538.50;1945.60;;;;;;5094441;28;20023;-79
2022/06/19 05:05:19;;;;;;;8.02;4.40;;;538.50;1945.60;;;;;;5092823;28;20040;-79
2022/06/19 05:07:45;;;;;;;11.73;4.80;;;538.50;1920.00;;;;;;5094427;28;20016;-79
2022/06/19 05:10:11;;;;;;;9.70;4.38;;;538.50;1920.00;;;;;;5093046;28;20034;-77
2022/06/19 05:12:37;;;;;;;7.68;3.88;;;563.20;1945.60;;;;;;5094292;28;20024;-79
2022/06/19 05:15:04;;;;;;;7.47;4.15;;;563.30;1920.00;;;;;;5090098;28;20024;-78
2022/06/19 05:17:30;;;;;;;7.22;4.18;;;563.40;1920.00;;;;;;5093775;28;20028;-77
2022/06/19 05:19:55;;;;;;;12.13;4.20;;;563.40;1920.00;;;;;;5093015;28;20036;-77
2022/06/19 05:22:21;;;;;;;7.85;5.10;;;563.60;1894.40;;;;;;5107322;28;20016;-79
2022/06/19 05:24:47;;;;;;;11.13;4.22;;;563.70;1868.80;;;;;;5106197;28;20034;-79
2022/06/19 05:27:13;;;;;;;7.55;4.20;;;563.90;1920.00;;;;;;5096173;28;20016;-77
2022/06/19 05:29:39;;;;;;;7.45;4.25;;;564.10;1894.40;;;;;;5093814;28;20035;-76
2022/06/19 05:32:05;;;;;;;6.35;4.25;;;564.10;1971.20;;;;;;5092169;28;20016;-77
2022/06/19 05:34:32;;;;;;;15.60;5.00;;;588.80;1971.20;;;;;;5091439;28;20040;-78
2022/06/19 05:36:58;;;;;;;11.70;4.40;;;588.80;1868.80;;;;;;5099353;28;20044;-77
2022/06/19 05:39:24;;;;;;;8.27;4.10;;;588.90;1920.00;;;;;;5101878;28;20068;-77
2022/06/19 05:41:52;;;;;;;6.88;4.10;;;588.90;1843.20;;;;;;5128502;27;20023;-76
2022/06/19 05:44:18;;;;;;;10.68;4.03;;;589.00;1817.60;;;;;;5095448;28;20031;-77
2022/06/19 05:46:47;;;;;;;9.77;4.22;;;589.10;1868.80;;;;;;5122954;27;20019;-78
2022/06/19 05:49:12;;;;;;;10.98;4.75;;;589.20;1843.20;;;;;;5133862;27;20114;-78
2022/06/19 05:51:38;;;;;;;7.18;4.22;;;589.20;1843.20;;;;;;5122984;27;20519;-78
2022/06/19 05:54:04;;;;;;;12.50;4.50;;;589.30;1843.20;;;;;;5092841;27;20035;-78
2022/06/19 05:56:30;;;;;;;8.07;4.05;;;589.40;1868.80;;;;;;5115736;27;20500;-78
2022/06/19 05:58:56;;;;;;;8.05;4.03;;;589.50;1868.80;;;;;;5134358;27;20102;-78
2022/06/19 06:01:23;;;;;;;9.10;4.22;;;589.50;1843.20;;;;;;5134513;27;20460;-78
2022/06/19 06:03:49;;;;;;;5.75;3.25;;;589.60;1868.80;;;;;;5134176;27;20027;-79
2022/06/19 06:06:21;;;;;;;15.05;3.75;;;589.70;1868.80;;;;;;5115779;27;20030;-78
2022/06/19 06:08:48;;;;;;;17.35;4.47;;;614.40;1894.40;;;;;;5116012;27;20027;-80
2022/06/19 06:11:14;;;;;;;12.30;4.50;;;614.40;1894.40;;;;;;5115962;27;20015;-80
2022/06/19 06:13:40;;;;;;;6.68;3.70;;;614.40;1843.20;;;;;;5115878;27;20434;-78
2022/06/19 06:16:06;;;;;;;8.38;4.35;;;614.50;1868.80;;;;;;5133921;27;20019;-79
2022/06/19 06:18:32;;;;;;;7.43;3.70;;;614.80;1792.00;;;;;;5115363;27;20344;-78
2022/06/19 06:21:03;;;;;;;6.28;3.90;;;614.80;1766.40;;;;;;5133657;27;20031;-78
2022/06/19 06:23:30;;;;;;;5.72;3.42;;;614.80;1766.40;;;;;;5116516;27;20028;-77
2022/06/19 06:26:00;;;;;;;8.45;4.05;;;614.80;1766.40;;;;;;5112929;28;20054;-79
2022/06/19 06:28:26;;;;;;;9.32;4.43;;;614.80;1766.40;;;;;;5112861;28;20028;-77
2022/06/19 06:30:51;;;;;;;6.93;4.00;;;614.90;1792.00;;;;;;5113067;28;20495;-79
2022/06/19 06:33:17;;;;;;;7.35;3.92;;;615.00;1817.60;;;;;;5127638;27;20035;-78
2022/06/19 06:35:43;;;;;;;6.70;3.95;;;615.10;1817.60;;;;;;5113144;28;20546;-76
2022/06/19 06:38:09;;;;;;;7.68;4.28;;;615.20;1817.60;;;;;;5125763;27;20042;-77
2022/06/19 06:40:35;;;;;;;13.65;4.28;;;615.30;1817.60;;;;;;5133520;27;20047;-80
2022/06/19 06:43:01;;;;;;;4.85;3.55;;;615.30;1792.00;;;;;;5115066;27;20102;-77
2022/06/19 06:45:27;;;;;;;10.50;3.92;;;640.00;1792.00;;;;;;5094503;28;20107;-76
2022/06/19 06:47:52;;;;;;;7.70;3.17;;;640.10;1715.20;;;;;;5112420;28;20438;-75
2022/06/19 06:50:19;;;;;;;5.70;3.22;;;640.10;1664.00;;;;;;5112553;28;20461;-76
2022/06/19 06:52:45;;;;;;;7.03;3.67;;;640.30;1638.40;;;;;;5094307;28;20020;-77
2022/06/19 06:55:12;;;;;;;7.35;2.95;;;640.40;1664.00;;;;;;5112434;28;20077;-77
2022/06/19 06:57:38;;;;;;;7.57;3.20;;;640.50;1612.80;;;;;;5112834;28;20031;-77
2022/06/19 07:00:07;;;;;;;11.80;3.78;;;640.60;1612.80;;;;;;5112220;28;20452;-79
2022/06/19 07:02:33;;;;;;;6.70;3.72;;;640.70;1612.80;;;;;;5112416;28;20068;-78
2022/06/19 07:04:59;;;;;;;7.38;3.03;;;640.70;1587.20;;;;;;5112179;28;20020;-75
2022/06/19 07:07:25;;;;;;;5.63;2.65;;;640.90;1612.80;;;;;;5112322;28;20023;-77
2022/06/19 07:09:51;;;;;;;5.97;3.10;;;665.60;1510.40;;;;;;5112256;28;20077;-78
2022/06/19 07:12:17;;;;;;;9.43;2.90;;;665.70;1510.40;;;;;;5112668;28;20051;-79
2022/06/19 07:14:42;;;;;;;7.28;2.55;;;665.80;1484.80;;;;;;5094068;28;20045;-79
2022/06/19 07:17:08;;;;;;;6.57;3.10;;;666.00;1510.40;;;;;;5108876;27;20019;-77
2022/06/19 07:19:34;;;;;;;11.43;3.22;;;666.10;1510.40;;;;;;5111590;27;20058;-78
2022/06/19 07:22:00;;;;;;;21.42;4.00;;;666.20;1536.00;;;;;;5093451;28;20477;-77
2022/06/19 07:24:26;;;;;;;7.85;3.58;;;666.40;1536.00;;;;;;5111508;28;20092;-77
2022/06/19 07:26:53;;;;;;;7.57;2.80;;;666.50;1561.60;;;;;;5112017;28;20120;-77
2022/06/19 07:29:19;;;;;;;5.78;3.40;;;691.30;1459.20;;;;;;5112275;28;20047;-75
2022/06/19 07:31:44;;;;;;;4.68;3.08;;;691.40;1510.40;;;;;;5111652;28;20051;-75
2022/06/19 07:34:10;;;;;;;14.82;3.78;;;691.60;1433.60;;;;;;5112056;28;20164;-77
2022/06/19 07:36:36;;;;;;;6.43;2.70;;;691.60;1382.40;;;;;;5112238;28;20426;-79
2022/06/19 07:39:04;;;;;;;10.90;3.38;;;691.70;1408.00;;;;;;5121420;28;20031;-78
2022/06/19 07:41:29;;;;;;;4.88;2.88;;;691.80;1382.40;;;;;;5118158;28;20043;-77
2022/06/19 07:43:56;;;;;;;5.82;3.10;;;691.80;1408.00;;;;;;5125505;28;20022;-78
2022/06/19 07:46:23;;;;;;;11.82;3.83;;;691.90;1433.60;;;;;;5099506;28;20465;-78
2022/06/19 07:51:33;;;;;;;10.75;2.95;;;716.80;1382.40;;;;;;5133228;28;20140;-78
2022/06/19 07:54:00;;;;;;;3.95;2.58;;;716.80;1356.80;;;;;;5101775;28;20119;-78
2022/06/19 07:56:26;;;;;;;6.78;3.05;;;716.80;1382.40;;;;;;5116290;27;20011;-77
2022/06/19 07:58:52;;;;;;;8.13;3.08;;;716.80;1356.80;;;;;;5131076;27;20043;-79
2022/06/19 08:01:18;;;;;;;3.72;2.53;;;716.90;1331.20;;;;;;5126477;27;20046;-79
2022/06/19 08:03:44;;;;;;;5.10;2.50;;;717.00;1305.60;;;;;;5118318;27;20393;-78
2022/06/19 08:06:13;;;;;;;4.60;2.22;;;717.20;1356.80;;;;;;5096590;28;20140;-78
2022/06/19 08:08:39;;;;;;;5.78;2.88;;;717.30;1305.60;;;;;;5097075;28;20073;-79
2022/06/19 08:11:04;;;;;;;5.78;3.40;;;717.30;1280.00;;;;;;5115681;28;20024;-79
2022/06/19 08:13:32;;;;;;;5.28;2.42;;;717.40;1305.60;;;;;;5116291;28;20100;-78
2022/06/19 08:16:04;;;;;;;6.57;2.58;;;717.50;1305.60;;;;;;5116598;27;20027;-78
2022/06/19 08:18:32;;;;;;;8.05;2.75;;;717.50;1280.00;;;;;;5118861;27;20508;-78
2022/06/19 08:20:58;;;;;;;6.78;2.75;;;717.60;1305.60;;;;;;5115736;28;20408;-78
2022/06/19 08:23:24;;;;;;;4.13;2.72;;;717.50;1254.40;;;;;;5097349;28;20045;-78
2022/06/19 08:25:50;;;;;;;6.55;3.00;;;717.50;1254.40;;;;;;5130505;27;20080;-78
2022/06/19 08:28:22;;;;;;;4.38;2.53;;;717.50;1254.40;;;;;;5096993;28;20039;-78
2022/06/19 08:30:48;;;;;;;6.38;2.30;;;717.70;1280.00;;;;;;5115740;28;20023;-78
2022/06/19 08:33:13;;;;;;;6.93;2.97;;;742.40;1305.60;;;;;;5120673;27;20024;-79
2022/06/19 08:35:46;;;;;;;7.00;2.30;;;742.50;1280.00;;;;;;5128714;27;20075;-78
2022/06/19 08:38:22;;;;;;;4.53;2.88;;;742.60;1280.00;;;;;;5135779;27;20480;-78
2022/06/19 08:41:03;;;;;;;5.65;2.60;;;742.60;1228.80;;;;;;5135524;27;20055;-78
2022/06/19 08:43:31;;;;;;;5.45;2.35;;;742.50;1254.40;;;;;;5136004;27;20027;-78
2022/06/19 08:46:21;;;;;;;6.85;2.90;;;742.60;1280.00;;;;;;5101032;28;20049;-78
2022/06/19 08:49:27;;;;;;;3.47;2.45;;;742.60;1280.00;;;;;;5108303;27;20106;-78
2022/06/19 08:51:52;;;;;;;4.20;2.10;;;742.70;1228.80;;;;;;5135719;27;20243;-78
2022/06/19 08:54:36;;;;;;;6.55;2.53;;;742.70;1228.80;;;;;;5117537;27;20168;-78
2022/06/19 08:57:27;;;;;;;5.65;2.80;;;742.70;1203.20;;;;;;5135692;27;20031;-78
2022/06/19 09:00:18;;;;;;;5.18;2.60;;;742.70;1203.20;;;;;;5111835;28;20042;-79
2022/06/19 09:03:12;;;;;;;6.28;3.17;;;742.90;1228.80;;;;;;5099001;28;20043;-78
2022/06/19 09:06:02;;;;;;;3.47;2.15;;;742.90;1203.20;;;;;;5090997;27;20362;-79
2022/06/19 09:08:37;;;;;;;4.28;2.60;;;743.00;1203.20;;;;;;5102514;27;20028;-78
2022/06/19 09:11:47;;;;;;;3.70;2.20;;;743.00;1177.60;;;;;;5107235;28;20110;-78
2022/06/19 09:14:41;;;;;;;2.70;1.95;;;743.10;1177.60;;;;;;5104150;27;20019;-79
2022/06/19 09:17:20;;;;;;;4.90;2.28;;;743.00;1177.60;;;;;;5135328;27;20015;-76
2022/06/19 09:20:00;;;;;;;5.65;2.17;;;743.10;1177.60;;;;;;5116780;27;20030;-79
2022/06/19 09:22:29;;;;;;;4.95;2.60;;;743.30;1152.00;;;;;;5116748;27;20023;-79
2022/06/19 09:25:01;;;;;;;10.32;3.03;;;743.30;1152.00;;;;;;5123147;27;20031;-79
2022/06/19 09:27:51;;;;;;;4.97;2.88;;;768.10;1152.00;;;;;;5119796;27;20019;-81
2022/06/19 09:30:25;;;;;;;3.63;2.30;;;768.20;1177.60;;;;;;5115558;27;20083;-79
2022/06/19 09:33:02;;;;;;;3.50;2.40;;;768.30;1152.00;;;;;;5129072;27;20088;-79
2022/06/19 09:35:41;;;;;;;3.95;2.58;;;768.40;1100.80;;;;;;5116438;27;20027;-79
2022/06/19 09:38:17;;;;;;;3.60;2.40;;;768.50;1126.40;;;;;;5135046;27;20015;-78
2022/06/19 09:40:50;;;;;;;6.07;2.65;;;768.60;1152.00;;;;;;5134315;27;20047;-79
2022/06/19 09:43:22;;;;;;;6.72;2.65;;;768.80;1100.80;;;;;;5134832;27;20102;-78
2022/06/19 09:46:13;;;;;;;5.80;2.75;;;793.60;1126.40;;;;;;5101211;27;20071;-79
2022/06/19 09:48:46;;;;;;;4.95;2.45;;;793.70;1152.00;;;;;;5116147;27;20117;-79
2022/06/19 09:51:20;;;;;;;9.98;2.90;;;793.80;1126.40;;;;;;5098475;28;20027;-79
2022/06/19 09:54:01;;;;;;;3.42;2.10;;;794.00;1126.40;;;;;;5124304;27;20105;-78
2022/06/19 09:56:46;;;;;;;5.63;2.67;;;794.10;1075.20;;;;;;5115859;27;20211;-78
2022/06/19 09:59:23;;;;;;;4.00;2.20;;;794.20;1075.20;;;;;;5115747;27;20038;-78
2022/06/19 10:01:56;;;;;;;5.10;2.75;;;794.30;1075.20;;;;;;5088487;27;20031;-76
2022/06/19 10:04:41;;;;;;;6.03;2.70;;;794.50;1075.20;;;;;;5102111;28;20477;-79
2022/06/19 10:07:29;;;;;;;6.22;2.40;;;819.20;1024.00;;;;;;5110091;27;20106;-78
2022/06/19 10:10:26;;;;;;;4.38;2.35;;;819.30;1024.00;;;;;;5112867;28;20016;-79
2022/06/19 10:12:54;;;;;;;4.95;2.22;;;819.30;1024.00;;;;;;5094939;28;20027;-78
2022/06/19 10:15:31;;;;;;;4.28;2.10;;;819.30;1049.60;;;;;;5094992;28;20024;-79
2022/06/19 10:18:13;;;;;;;6.05;2.05;;;819.40;1049.60;;;;;;5093738;27;20065;-79
2022/06/19 10:20:58;;;;;;;4.65;2.25;;;819.50;1024.00;;;;;;5096103;28;20036;-79
2022/06/19 10:23:39;;;;;;;4.88;2.45;;;819.60;1024.00;;;;;;5094280;28;20028;-78
2022/06/19 10:26:23;;;;;;;6.10;2.50;;;819.80;998.40;;;;;;5112985;27;20430;-78
2022/06/19 10:28:58;;;;;;;36.30;10.43;;;820.00;972.80;;;;;;5115630;27;20484;-78
2022/06/19 10:31:33;;;;;;;5.93;2.38;;;820.10;1024.00;;;;;;5119291;27;20472;-79
2022/06/19 10:34:05;;;;;;;4.25;2.60;;;820.10;998.40;;;;;;5133826;27;20094;-80
2022/06/19 10:36:36;;;;;;;4.10;2.40;;;820.10;972.80;;;;;;5119319;27;20050;-77
2022/06/19 10:39:24;;;;;;;4.13;2.38;;;844.80;998.40;;;;;;5115051;27;20031;-78
2022/06/19 10:42:18;;;;;;;3.70;2.40;;;844.80;1024.00;;;;;;5133342;27;20031;-78
2022/06/19 10:45:15;;;;;;;4.22;2.20;;;820.10;998.40;;;;;;5008305;28;20058;-78
2022/06/19 10:47:47;;;;;;;;;;;845.00;1024.00;;;;;;5026935;28;20041;-79
2022/06/19 10:50:28;;;;;;;7.88;2.65;;;845.20;1024.00;;;;;;5020849;28;19914;-78
2022/06/19 10:53:13;;;;;;;4.63;2.55;;;845.20;972.80;;;;;;4993413;28;20033;-78
2022/06/19 10:55:46;;;;;;;5.22;1.92;;;845.20;972.80;;;;;;5010211;28;20145;-78
2022/06/19 10:58:16;;;;;;;4.45;2.63;;;845.30;998.40;;;;;;4993514;28;20017;-78
2022/06/19 11:00:43;;;;;;;3.42;2.30;;;845.20;998.40;;;;;;4993240;28;20033;-77
2022/06/19 11:06:41;;;;;;;10.43;2.30;;;844.90;998.40;;;;;;5010147;28;20053;-77
2022/06/19 11:09:15;;;;;;;4.53;2.03;;;845.00;998.40;;;;;;5022358;28;20672;-79
2022/06/19 11:11:44;;;;;;;5.95;3.53;;;845.10;972.80;;;;;;5008613;28;20025;-78
2022/06/19 11:14:13;;;;;;;6.00;3.25;;;845.20;947.20;;;;;;5009609;28;20076;-80
2022/06/19 11:16:58;;;;;;;12.93;6.53;;;844.80;972.80;;;;;;4992916;28;20040;-79
2022/06/19 11:19:46;;;;;;;4.22;2.42;;;845.00;998.40;;;;;;5009398;28;20171;-79
2022/06/19 11:22:41;;;;;;;4.38;2.53;;;845.30;947.20;;;;;;5081995;28;20052;-79
2022/06/19 11:25:19;;;;;;;3.60;2.55;;;845.40;947.20;;;;;;5092776;28;20028;-79
2022/06/19 11:28:05;;;;;;;4.68;2.15;;;845.40;947.20;;;;;;5093228;28;20024;-79
2022/06/19 11:30:36;;;;;;;3.50;2.17;;;845.40;947.20;;;;;;5107034;28;20028;-79
2022/06/19 11:33:06;;;;;;;4.85;2.80;;;845.40;972.80;;;;;;5111148;28;20102;-79
2022/06/19 11:35:39;;;;;;;4.60;2.90;;;845.40;972.80;;;;;;5096524;28;20492;-79
2022/06/19 11:38:05;;;;;;;3.38;2.38;;;845.60;947.20;;;;;;5095316;28;20026;-77
2022/06/19 11:40:37;;;;;;;7.85;3.00;;;845.70;921.60;;;;;;5097285;28;20370;-78
2022/06/19 11:43:05;;;;;;;8.05;2.97;;;845.40;947.20;;;;;;5114309;28;20026;-79
2022/06/19 11:45:37;;;;;;;13.13;2.85;;;845.60;947.20;;;;;;5115826;28;20024;-76
2022/06/19 11:48:13;;;;;;;4.72;2.28;;;845.60;947.20;;;;;;5113010;28;20008;-77
2022/06/19 11:50:51;;;;;;;3.88;2.38;;;845.70;947.20;;;;;;5124680;27;20035;-76
2022/06/19 11:53:30;;;;;;;4.47;2.72;;;870.40;972.80;;;;;;5136547;27;20028;-75
2022/06/19 11:56:30;;;;;;;6.00;2.42;;;845.70;947.20;;;;;;5126994;27;20069;-79
2022/06/19 11:59:01;;;;;;;7.00;3.88;;;845.60;947.20;;;;;;5102881;28;20016;-75
2022/06/19 12:01:40;;;;;;;5.78;2.55;;;845.50;947.20;;;;;;5115163;28;20024;-76
2022/06/19 12:04:30;;;;;;;7.22;3.20;;;845.50;921.60;;;;;;5115522;28;20464;-76
2022/06/19 12:07:12;;;;;;;2.75;1.98;;;845.60;947.20;;;;;;5095561;28;20377;-76
2022/06/19 12:09:43;;;;;;;4.80;2.90;;;870.40;921.60;;;;;;5114546;28;20031;-76
2022/06/19 12:12:12;;;;;;;8.45;2.83;;;845.60;921.60;;;;;;5094137;28;20016;-76
2022/06/19 12:15:12;;;;;;;3.97;2.47;;;870.50;921.60;;;;;;5115719;28;20055;-75
2022/06/19 12:17:43;;;;;;;4.22;2.80;;;870.50;896.00;;;;;;5113975;28;20031;-76
2022/06/19 12:20:09;;;;;;;4.90;2.67;;;870.50;921.60;;;;;;5112505;28;21524;-76
2022/06/19 12:22:58;;;;;;;6.65;2.60;;;870.50;921.60;;;;;;5114843;28;20020;-76
2022/06/19 12:25:35;;;;;;;4.95;2.17;;;870.50;947.20;;;;;;5112747;28;20031;-76
2022/06/19 12:28:46;;;;;;;3.55;2.17;;;870.50;896.00;;;;;;5113244;28;20020;-76
2022/06/19 12:31:23;;;;;;;3.60;2.25;;;870.70;921.60;;;;;;5110517;28;20047;-76
2022/06/19 12:34:01;;;;;;;6.75;2.20;;;870.80;921.60;;;;;;5114391;28;20061;-76
2022/06/19 12:36:33;;;;;;;5.53;3.83;;;870.80;896.00;;;;;;5112835;28;20085;-76
2022/06/19 12:39:00;;;;;;;12.43;5.35;;;870.60;921.60;;;;;;5112746;28;20472;-75
2022/06/19 12:41:48;;;;;;;8.13;5.80;;;870.40;921.60;;;;;;5114409;28;20496;-77
2022/06/19 12:44:46;;;;;;;7.03;3.55;;;870.50;896.00;;;;;;5111511;28;20047;-75